Time;durP1;ratioP1;P1;durP2;ratioP2;P2;SDS_P1;SDS_P2;PMS_P1;PMS_P2;Temp;Humidity;BMP_temperature;BMP_pressure;BME280_temperature;BME280_humidity;BME280_pressure;Samples;Min_cycle;Max_cycle;Signal;HPM_P1;HPM_P2
2022/03/20 00:01:39;;;;;;;1.45;1.42;;;4.60;76.10;;;;;;5075768;28;20024;-71
2022/03/20 00:04:04;;;;;;;1.60;1.50;;;4.70;76.40;;;;;;5096733;28;20054;-71
2022/03/20 00:06:30;;;;;;;10.52;5.63;;;4.50;76.60;;;;;;5078628;28;20483;-72
2022/03/20 00:08:57;;;;;;;3.83;1.67;;;4.60;76.60;;;;;;5078816;28;20036;-72
2022/03/20 00:11:22;;;;;;;0.50;0.50;;;4.50;77.30;;;;;;5096828;28;20146;-72
2022/03/20 00:13:48;;;;;;;0.60;0.60;;;4.50;77.90;;;;;;5096747;28;20058;-71
2022/03/20 00:16:14;;;;;;;3.40;1.55;;;4.50;77.30;;;;;;5078099;28;20024;-72
2022/03/20 00:18:40;;;;;;;0.98;0.98;;;4.40;77.80;;;;;;5096566;28;20482;-71
2022/03/20 00:21:09;;;;;;;5.45;4.97;;;4.40;78.60;;;;;;5096154;28;20028;-72
2022/03/20 00:23:35;;;;;;;1.55;1.45;;;4.50;78.10;;;;;;5096026;28;20059;-72
2022/03/20 00:26:01;;;;;;;0.70;0.70;;;4.40;78.40;;;;;;5077345;28;20093;-71
2022/03/20 00:28:27;;;;;;;1.30;1.30;;;4.50;78.70;;;;;;5095830;28;20024;-72
2022/03/20 00:30:54;;;;;;;1.48;1.48;;;4.50;77.90;;;;;;5095785;28;20482;-72
2022/03/20 00:33:19;;;;;;;1.40;1.38;;;4.50;78.30;;;;;;5077770;28;20031;-72
2022/03/20 00:35:45;;;;;;;0.65;0.65;;;4.50;78.00;;;;;;5077629;28;20035;-71
2022/03/20 00:38:11;;;;;;;0.30;0.30;;;4.50;78.60;;;;;;5095666;28;20031;-72
2022/03/20 00:40:37;;;;;;;0.88;0.88;;;4.70;78.10;;;;;;5077463;28;20024;-72
2022/03/20 00:43:04;;;;;;;0.40;0.40;;;4.70;77.50;;;;;;5061235;28;20434;-72
2022/03/20 00:45:31;;;;;;;0.47;0.47;;;4.80;77.40;;;;;;5077484;28;20056;-72
2022/03/20 00:47:56;;;;;;;0.93;0.93;;;4.60;77.50;;;;;;5055250;23;20052;-74
2022/03/20 00:50:22;;;;;;;0.93;0.93;;;4.50;78.70;;;;;;5055423;28;20413;-75
2022/03/20 00:52:48;;;;;;;3.42;3.13;;;4.60;78.10;;;;;;5055707;28;20108;-75
2022/03/20 00:55:14;;;;;;;0.60;0.60;;;4.60;78.20;;;;;;5055575;28;20049;-75
2022/03/20 00:57:39;;;;;;;1.65;1.55;;;4.60;77.90;;;;;;5055581;28;20027;-74
2022/03/20 01:00:06;;;;;;;1.20;1.20;;;4.60;78.30;;;;;;5038178;28;20029;-75
2022/03/20 01:02:43;;;;;;;2.63;1.27;;;4.50;78.00;;;;;;5037810;28;20025;-74
2022/03/20 01:05:09;;;;;;;0.70;0.70;;;4.50;78.10;;;;;;5037901;28;20033;-74
2022/03/20 01:07:38;;;;;;;0.60;0.60;;;4.40;77.70;;;;;;5055929;28;20048;-74
2022/03/20 01:10:06;;;;;;;3.35;2.47;;;4.40;78.30;;;;;;5056170;28;20025;-75
2022/03/20 01:12:33;;;;;;;8.65;4.57;;;4.30;79.10;;;;;;5037755;28;20021;-75
2022/03/20 01:15:00;;;;;;;0.40;0.40;;;4.20;79.70;;;;;;5056016;28;20047;-75
2022/03/20 01:17:25;;;;;;;2.15;2.05;;;4.00;79.10;;;;;;5037886;28;20075;-75
2022/03/20 01:19:52;;;;;;;1.52;1.50;;;3.90;78.70;;;;;;5038271;28;20025;-74
2022/03/20 01:22:18;;;;;;;1.50;1.40;;;3.70;80.30;;;;;;5054766;28;20021;-75
2022/03/20 01:24:44;;;;;;;0.70;0.70;;;3.60;80.50;;;;;;5038053;28;20044;-74
2022/03/20 01:27:09;;;;;;;4.38;4.07;;;3.50;79.90;;;;;;5055313;28;20044;-75
2022/03/20 01:29:36;;;;;;;5.97;1.13;;;3.30;81.00;;;;;;5038046;28;20021;-74
2022/03/20 01:32:02;;;;;;;1.95;1.85;;;3.30;82.20;;;;;;5055596;28;20376;-75
2022/03/20 01:34:28;;;;;;;8.70;5.50;;;3.30;81.80;;;;;;5055841;28;20508;-74
2022/03/20 01:36:54;;;;;;;0.80;0.80;;;3.20;82.50;;;;;;5055480;28;20025;-74
2022/03/20 01:39:20;;;;;;;1.30;1.20;;;3.30;82.40;;;;;;5037418;28;20598;-74
2022/03/20 01:41:47;;;;;;;0.40;0.40;;;3.40;82.80;;;;;;5055063;28;20029;-75
2022/03/20 01:44:13;;;;;;;2.15;1.67;;;3.30;81.50;;;;;;5037659;28;20040;-74
2022/03/20 01:46:39;;;;;;;1.15;1.15;;;3.20;82.30;;;;;;5054932;28;20035;-74
2022/03/20 01:49:05;;;;;;;0.85;0.85;;;3.30;83.30;;;;;;5037503;28;20063;-75
2022/03/20 01:54:15;;;;;;;0.77;0.77;;;3.40;82.90;;;;;;5055164;28;20468;-75
2022/03/20 01:56:46;;;;;;;2.63;2.42;;;3.40;82.80;;;;;;5037379;28;20024;-75
2022/03/20 01:59:14;;;;;;;0.40;0.40;;;3.20;81.60;;;;;;5055433;28;20108;-75
2022/03/20 02:01:40;;;;;;;0.50;0.50;;;3.00;82.40;;;;;;5054906;28;20029;-75
2022/03/20 02:04:06;;;;;;;1.10;1.10;;;2.90;83.00;;;;;;5037198;28;20026;-75
2022/03/20 02:06:31;;;;;;;0.75;0.75;;;3.00;82.90;;;;;;5055025;28;20029;-75
2022/03/20 02:08:57;;;;;;;2.05;1.35;;;3.00;83.00;;;;;;5037459;28;20025;-75
2022/03/20 02:11:26;;;;;;;0.68;0.68;;;3.00;83.70;;;;;;5055534;28;20051;-75
2022/03/20 02:13:53;;;;;;;1.08;1.08;;;3.00;83.60;;;;;;5054503;28;20029;-75
2022/03/20 02:16:19;;;;;;;1.02;1.02;;;3.00;83.70;;;;;;5036895;28;20032;-74
2022/03/20 02:18:46;;;;;;;2.72;1.35;;;3.20;84.50;;;;;;5055021;28;20098;-75
2022/03/20 02:21:12;;;;;;;1.08;1.08;;;3.10;82.50;;;;;;5037301;28;20536;-75
2022/03/20 02:23:38;;;;;;;1.45;1.42;;;3.00;83.50;;;;;;5036358;28;20048;-74
2022/03/20 02:26:03;;;;;;;5.28;4.97;;;3.10;83.90;;;;;;5035849;28;20032;-75
2022/03/20 02:28:29;;;;;;;1.75;1.65;;;3.30;83.40;;;;;;5036991;28;20021;-75
2022/03/20 02:30:55;;;;;;;0.93;0.93;;;3.40;83.40;;;;;;5036399;28;20107;-74
2022/03/20 02:33:24;;;;;;;0.70;0.70;;;3.30;82.80;;;;;;5036713;28;20023;-74
2022/03/20 02:35:53;;;;;;;4.15;3.80;;;3.40;83.60;;;;;;5036693;28;20029;-75
2022/03/20 02:38:20;;;;;;;1.55;1.45;;;3.60;82.80;;;;;;5054724;28;20029;-75
2022/03/20 02:40:46;;;;;;;0.43;0.43;;;3.40;81.50;;;;;;5036513;28;20423;-75
2022/03/20 02:43:12;;;;;;;1.55;1.45;;;3.30;82.50;;;;;;5036629;28;20021;-75
2022/03/20 02:45:38;;;;;;;5.05;4.60;;;3.30;82.70;;;;;;5052928;28;20071;-75
2022/03/20 02:48:04;;;;;;;2.30;2.15;;;3.20;82.40;;;;;;5019819;28;20438;-74
2022/03/20 02:50:33;;;;;;;3.65;3.35;;;3.10;82.50;;;;;;5054465;28;20427;-75
2022/03/20 02:53:13;;;;;;;8.07;7.50;;;3.10;82.30;;;;;;5036051;28;20032;-75
2022/03/20 02:55:45;;;;;;;5.90;5.47;;;3.20;82.80;;;;;;5035909;28;20024;-75
2022/03/20 02:58:14;;;;;;;0.52;0.52;;;3.40;83.10;;;;;;5054225;28;20528;-75
2022/03/20 03:00:41;;;;;;;0.35;0.35;;;3.60;81.90;;;;;;5054369;28;20017;-75
2022/03/20 03:03:11;;;;;;;1.27;1.20;;;3.40;81.60;;;;;;5053991;28;20049;-75
2022/03/20 03:05:38;;;;;;;1.15;1.15;;;3.50;81.90;;;;;;5035397;28;20055;-75
2022/03/20 03:11:01;;;;;;;4.47;2.58;;;3.40;82.00;;;;;;5035337;28;20506;-75
2022/03/20 03:13:27;;;;;;;0.40;0.40;;;3.20;82.20;;;;;;5019162;28;20024;-75
2022/03/20 03:15:58;;;;;;;1.83;1.73;;;3.10;82.30;;;;;;5053395;28;20480;-75
2022/03/20 03:18:25;;;;;;;2.13;1.95;;;3.00;82.70;;;;;;5035691;28;20021;-75
2022/03/20 03:20:51;;;;;;;2.65;2.13;;;3.00;83.20;;;;;;5035439;28;20017;-74
2022/03/20 03:23:17;;;;;;;8.20;2.83;;;2.90;82.90;;;;;;5035766;28;20443;-75
2022/03/20 03:25:43;;;;;;;4.00;2.35;;;3.00;82.50;;;;;;5035633;28;20017;-75
2022/03/20 03:28:10;;;;;;;9.50;3.83;;;2.90;83.00;;;;;;5035943;28;20344;-74
2022/03/20 03:30:37;;;;;;;1.40;1.40;;;2.80;82.90;;;;;;5053888;28;20357;-74
2022/03/20 03:33:03;;;;;;;2.08;1.50;;;2.80;83.50;;;;;;5035392;28;20087;-75
2022/03/20 03:35:53;;;;;;;0.47;0.47;;;2.90;83.00;;;;;;5054147;28;20460;-75
2022/03/20 03:38:22;;;;;;;2.78;2.58;;;2.70;82.90;;;;;;5039623;28;20080;-73
2022/03/20 03:40:49;;;;;;;1.25;1.25;;;2.70;84.20;;;;;;5056727;28;20036;-75
2022/03/20 03:43:20;;;;;;;0.60;0.60;;;2.70;83.70;;;;;;5039176;28;20501;-75
2022/03/20 03:45:47;;;;;;;1.00;1.00;;;2.60;84.10;;;;;;5056457;28;20029;-75
2022/03/20 03:48:14;;;;;;;6.25;5.88;;;2.70;84.30;;;;;;5056808;28;20391;-74
2022/03/20 03:50:42;;;;;;;0.75;0.75;;;2.80;83.60;;;;;;5039261;28;20542;-74
2022/03/20 03:53:12;;;;;;;4.93;4.57;;;2.60;83.50;;;;;;5039164;28;20057;-74
2022/03/20 03:55:39;;;;;;;0.40;0.40;;;2.60;84.30;;;;;;5022540;28;20025;-75
2022/03/20 03:58:05;;;;;;;0.40;0.40;;;2.70;84.10;;;;;;5038816;28;20025;-74
2022/03/20 04:00:34;;;;;;;0.40;0.40;;;2.60;84.30;;;;;;5039445;28;20035;-74
2022/03/20 04:03:01;;;;;;;0.47;0.47;;;2.60;84.30;;;;;;5056406;28;20033;-74
2022/03/20 04:05:30;;;;;;;4.07;3.88;;;2.70;83.80;;;;;;5056733;28;20452;-74
2022/03/20 04:07:56;;;;;;;11.60;3.60;;;2.80;83.60;;;;;;5056664;28;20067;-74
2022/03/20 04:10:23;;;;;;;1.15;1.15;;;2.80;83.10;;;;;;5056518;28;20021;-75
2022/03/20 04:12:49;;;;;;;0.50;0.50;;;2.80;83.00;;;;;;5038464;28;20035;-75
2022/03/20 04:15:17;;;;;;;1.70;1.60;;;2.80;82.80;;;;;;5022147;28;20499;-75
2022/03/20 04:17:43;;;;;;;1.80;1.70;;;2.80;83.30;;;;;;5056537;28;20017;-74
2022/03/20 04:20:10;;;;;;;1.58;1.48;;;2.90;82.70;;;;;;5038726;28;20090;-75
2022/03/20 04:22:38;;;;;;;18.83;1.27;;;3.00;82.60;;;;;;5038293;28;20037;-75
2022/03/20 04:25:05;;;;;;;0.63;0.63;;;3.00;82.30;;;;;;5038449;28;20092;-75
2022/03/20 04:27:32;;;;;;;0.40;0.40;;;2.90;82.60;;;;;;5038164;28;20029;-75
2022/03/20 04:29:58;;;;;;;0.40;0.40;;;3.00;82.20;;;;;;5056442;28;20021;-75
2022/03/20 04:32:24;;;;;;;0.50;0.50;;;3.10;81.80;;;;;;5038494;28;20073;-75
2022/03/20 04:34:50;;;;;;;8.68;5.03;;;3.20;81.60;;;;;;5038645;28;20032;-74
2022/03/20 04:37:17;;;;;;;1.13;1.13;;;3.10;81.20;;;;;;5056534;28;20059;-75
2022/03/20 04:39:43;;;;;;;0.85;0.77;;;3.10;81.80;;;;;;5038818;28;20053;-74
2022/03/20 04:42:09;;;;;;;0.65;0.65;;;3.10;81.70;;;;;;5056113;28;20071;-75
2022/03/20 04:44:40;;;;;;;0.40;0.40;;;3.20;81.50;;;;;;5056335;28;20365;-75
2022/03/20 04:58:29;;;;;;;1.17;1.17;;;3.20;80.20;;;;;;5055074;28;20021;-75
2022/03/20 05:00:54;;;;;;;1.90;1.70;;;2.90;81.10;;;;;;5037844;28;20496;-75
2022/03/20 05:03:20;;;;;;;2.15;2.05;;;2.50;81.70;;;;;;5055719;28;20032;-75
2022/03/20 05:05:47;;;;;;;2.75;2.55;;;2.30;82.20;;;;;;5021505;28;20025;-75
2022/03/20 05:08:13;;;;;;;3.83;1.67;;;2.20;83.40;;;;;;5038237;28;20112;-75
2022/03/20 05:13:23;;;;;;;0.55;0.55;;;2.20;83.50;;;;;;5056219;28;20021;-75
2022/03/20 05:15:49;;;;;;;3.80;2.10;;;2.10;82.90;;;;;;5055683;28;20075;-76
2022/03/20 05:18:15;;;;;;;3.70;3.50;;;2.10;83.30;;;;;;5055041;28;20025;-74
2022/03/20 05:20:43;;;;;;;1.48;1.38;;;1.90;83.20;;;;;;5055955;28;20104;-75
2022/03/20 05:23:10;;;;;;;1.95;1.85;;;1.90;83.30;;;;;;5021101;28;20500;-75
2022/03/20 05:25:36;;;;;;;0.80;0.80;;;1.80;83.30;;;;;;5037290;28;20025;-75
2022/03/20 05:28:02;;;;;;;1.17;1.10;;;1.70;83.00;;;;;;5037635;28;20108;-75
2022/03/20 05:30:28;;;;;;;0.43;0.43;;;1.70;84.20;;;;;;5055481;28;20025;-75
2022/03/20 05:32:54;;;;;;;0.95;0.95;;;1.70;84.30;;;;;;5055490;28;20025;-75
2022/03/20 05:35:20;;;;;;;5.78;5.25;;;1.80;83.70;;;;;;5037388;28;20500;-75
2022/03/20 05:37:46;;;;;;;0.65;0.65;;;1.70;83.90;;;;;;5055026;28;20029;-75
2022/03/20 05:40:16;;;;;;;3.30;1.63;;;1.80;83.70;;;;;;5037495;28;20112;-75
2022/03/20 05:42:42;;;;;;;1.73;1.63;;;1.70;82.70;;;;;;5037576;28;20059;-75
2022/03/20 05:45:10;;;;;;;2.20;1.17;;;1.40;83.80;;;;;;5055357;28;20491;-75
2022/03/20 05:47:37;;;;;;;1.98;1.73;;;1.30;84.40;;;;;;5067755;22;20073;-72
2022/03/20 05:50:05;;;;;;;0.47;0.47;;;1.40;85.40;;;;;;5053177;28;20055;-72
2022/03/20 05:52:31;;;;;;;2.00;1.90;;;1.60;84.40;;;;;;5053114;28;20025;-72
2022/03/20 05:55:01;;;;;;;0.40;0.40;;;1.80;84.50;;;;;;5035253;28;20369;-70
2022/03/20 06:00:20;;;;;;;2.85;1.38;;;2.20;84.70;;;;;;5052045;28;20029;-70
2022/03/20 06:02:46;;;;;;;0.47;0.47;;;2.20;83.90;;;;;;5035158;28;20531;-70
2022/03/20 06:05:12;;;;;;;19.48;5.45;;;2.30;84.10;;;;;;5051475;28;20032;-70
2022/03/20 06:07:43;;;;;;;1.08;1.02;;;2.30;84.30;;;;;;5052541;28;20033;-70
2022/03/20 06:10:13;;;;;;;14.70;8.82;;;2.30;84.00;;;;;;5052738;28;20409;-70
2022/03/20 06:12:39;;;;;;;2.25;2.05;;;2.20;84.80;;;;;;5034828;28;20112;-70
2022/03/20 06:15:08;;;;;;;0.35;0.35;;;2.20;85.10;;;;;;5052647;28;20101;-70
2022/03/20 06:17:40;;;;;;;1.05;1.05;;;2.10;86.00;;;;;;5052492;28;20028;-70
2022/03/20 06:20:08;;;;;;;0.32;0.32;;;2.40;87.20;;;;;;5052572;28;20027;-69
2022/03/20 06:22:35;;;;;;;5.05;4.57;;;2.60;86.40;;;;;;5052410;28;20031;-70
2022/03/20 06:25:08;;;;;;;0.82;0.82;;;2.60;86.00;;;;;;5052677;28;20468;-70
2022/03/20 06:27:43;;;;;;;3.17;2.92;;;2.70;86.70;;;;;;5052315;28;20542;-70
2022/03/20 06:30:11;;;;;;;0.70;0.70;;;2.80;85.60;;;;;;5052338;28;20029;-70
2022/03/20 06:32:37;;;;;;;4.95;4.60;;;2.90;85.50;;;;;;5017848;28;20055;-70
2022/03/20 06:35:06;;;;;;;5.82;5.47;;;3.10;85.50;;;;;;5034510;28;20025;-70
2022/03/20 06:37:43;;;;;;;6.57;2.58;;;3.40;84.10;;;;;;5034275;28;20029;-71
2022/03/20 06:40:10;;;;;;;0.38;0.38;;;3.50;82.70;;;;;;5052235;28;20025;-70
2022/03/20 06:42:36;;;;;;;0.40;0.40;;;3.40;83.60;;;;;;5052175;28;20032;-70
2022/03/20 06:45:04;;;;;;;2.78;2.53;;;3.40;83.10;;;;;;5034148;28;20032;-70
2022/03/20 06:47:32;;;;;;;8.00;4.78;;;3.40;83.40;;;;;;5051719;28;20122;-70
2022/03/20 06:49:59;;;;;;;1.00;1.00;;;3.30;83.60;;;;;;5052125;28;20361;-70
2022/03/20 06:52:28;;;;;;;2.72;1.55;;;3.50;84.10;;;;;;5052009;28;20108;-70
2022/03/20 06:54:59;;;;;;;0.82;0.82;;;3.60;83.10;;;;;;5051871;28;20472;-70
2022/03/20 06:57:26;;;;;;;1.00;1.00;;;3.70;83.00;;;;;;5051843;28;20025;-70
2022/03/20 06:59:55;;;;;;;0.88;0.88;;;3.80;82.30;;;;;;5051881;28;20484;-70
2022/03/20 07:02:21;;;;;;;1.30;1.27;;;3.90;82.50;;;;;;5051867;28;20040;-70
2022/03/20 07:04:47;;;;;;;2.25;1.88;;;4.00;80.50;;;;;;5033934;28;20027;-70
2022/03/20 07:07:15;;;;;;;1.05;1.05;;;4.00;80.50;;;;;;5033947;28;20392;-71
2022/03/20 07:09:40;;;;;;;3.30;2.33;;;4.00;81.10;;;;;;5034102;28;20017;-70
2022/03/20 07:12:07;;;;;;;0.20;0.20;;;4.10;80.60;;;;;;5039997;28;20017;-70
2022/03/20 07:14:33;;;;;;;16.67;7.70;;;4.10;81.50;;;;;;5040623;28;20059;-73
2022/03/20 07:16:59;;;;;;;6.75;5.03;;;4.20;81.30;;;;;;5040725;28;20020;-70
2022/03/20 07:19:26;;;;;;;5.68;2.88;;;4.10;81.20;;;;;;5058672;28;20085;-71
2022/03/20 07:21:53;;;;;;;0.90;0.90;;;4.10;81.30;;;;;;5059130;28;20033;-71
2022/03/20 07:24:19;;;;;;;1.60;1.50;;;4.20;82.80;;;;;;5058198;28;20108;-71
2022/03/20 07:29:31;;;;;;;5.43;3.92;;;4.10;84.00;;;;;;5040496;28;20382;-70
2022/03/20 07:31:58;;;;;;;18.38;7.72;;;4.20;83.60;;;;;;5058271;28;20025;-71
2022/03/20 07:34:24;;;;;;;1.40;1.40;;;4.30;83.30;;;;;;5040121;28;20511;-71
2022/03/20 07:36:50;;;;;;;14.70;5.63;;;4.30;84.30;;;;;;5058048;28;20028;-70
2022/03/20 07:39:17;;;;;;;7.55;3.63;;;4.40;83.10;;;;;;5040266;28;20029;-70
2022/03/20 07:41:43;;;;;;;1.50;1.17;;;4.50;83.30;;;;;;5058295;28;20021;-71
2022/03/20 07:44:10;;;;;;;0.80;0.80;;;4.60;83.60;;;;;;5057870;28;20032;-71
2022/03/20 07:46:36;;;;;;;2.60;2.40;;;4.70;82.70;;;;;;5057805;28;20115;-70
2022/03/20 07:49:02;;;;;;;1.08;1.08;;;4.70;83.50;;;;;;5058033;28;20068;-71
2022/03/20 07:51:30;;;;;;;13.75;6.13;;;4.70;83.80;;;;;;5056168;28;20516;-70
2022/03/20 07:53:57;;;;;;;9.18;4.13;;;4.60;84.10;;;;;;5039409;28;20462;-71
2022/03/20 07:56:23;;;;;;;0.38;0.38;;;4.70;84.20;;;;;;5038735;28;20511;-71
2022/03/20 07:58:50;;;;;;;0.25;0.25;;;4.90;84.00;;;;;;5058151;28;20021;-70
2022/03/20 08:01:15;;;;;;;11.00;6.55;;;5.10;83.30;;;;;;5057792;28;20103;-71
2022/03/20 08:03:41;;;;;;;6.53;2.33;;;5.40;81.80;;;;;;5056755;28;20052;-71
2022/03/20 08:06:08;;;;;;;3.05;2.38;;;5.40;81.60;;;;;;5039915;28;20033;-71
2022/03/20 08:08:34;;;;;;;0.50;0.50;;;5.50;79.90;;;;;;5058312;28;20025;-70
2022/03/20 08:11:00;;;;;;;3.13;2.42;;;5.60;79.60;;;;;;5058064;28;20041;-71
2022/03/20 08:13:27;;;;;;;0.57;0.57;;;5.60;79.20;;;;;;5057965;28;20064;-70
2022/03/20 08:15:53;;;;;;;0.30;0.30;;;5.70;79.10;;;;;;5022994;28;20481;-71
2022/03/20 08:18:19;;;;;;;0.40;0.40;;;6.00;78.40;;;;;;5057808;28;20105;-71
2022/03/20 08:20:44;;;;;;;8.93;2.05;;;6.00;77.30;;;;;;5057935;28;20044;-70
2022/03/20 08:23:10;;;;;;;0.68;0.68;;;6.00;77.00;;;;;;5036562;28;20083;-70
2022/03/20 08:25:38;;;;;;;0.40;0.40;;;6.00;76.80;;;;;;5054555;28;20532;-71
2022/03/20 08:28:05;;;;;;;0.57;0.57;;;6.10;76.60;;;;;;5053475;28;20043;-70
2022/03/20 08:30:32;;;;;;;2.95;2.53;;;6.30;77.00;;;;;;5036670;28;20090;-70
2022/03/20 08:32:57;;;;;;;2.92;2.17;;;6.40;76.30;;;;;;5054329;28;20049;-70
2022/03/20 08:35:23;;;;;;;9.93;4.35;;;6.50;76.00;;;;;;5054327;28;20440;-70
2022/03/20 08:37:52;;;;;;;2.53;2.17;;;6.60;75.50;;;;;;5054348;28;20029;-71
2022/03/20 08:40:20;;;;;;;1.52;1.42;;;6.80;74.60;;;;;;5036694;28;20025;-70
2022/03/20 08:42:54;;;;;;;11.25;4.20;;;6.80;74.00;;;;;;5054929;28;20029;-70
2022/03/20 08:45:24;;;;;;;2.53;1.52;;;6.90;73.30;;;;;;5036346;28;20091;-70
2022/03/20 08:47:50;;;;;;;0.30;0.30;;;6.90;73.60;;;;;;5054038;28;20029;-70
2022/03/20 08:50:17;;;;;;;8.65;1.58;;;7.10;73.20;;;;;;5019742;28;20024;-71
2022/03/20 08:52:46;;;;;;;2.25;1.30;;;7.20;71.60;;;;;;5036457;28;20496;-71
2022/03/20 08:55:16;;;;;;;0.40;0.40;;;7.30;71.90;;;;;;5054149;28;20021;-71
2022/03/20 08:57:52;;;;;;;13.88;7.35;;;7.50;70.70;;;;;;5053973;28;20025;-71
2022/03/20 09:00:20;;;;;;;6.63;3.22;;;7.70;70.50;;;;;;5053487;28;20020;-71
2022/03/20 09:02:48;;;;;;;1.23;1.23;;;7.90;69.20;;;;;;5053991;28;20021;-71
2022/03/20 09:05:16;;;;;;;4.20;2.03;;;8.10;68.20;;;;;;5053765;28;20523;-71
2022/03/20 09:07:43;;;;;;;7.78;2.92;;;8.50;67.10;;;;;;5053758;28;20112;-71
2022/03/20 09:10:10;;;;;;;0.55;0.47;;;8.70;65.60;;;;;;5035932;28;20236;-71
2022/03/20 09:12:37;;;;;;;1.83;1.73;;;9.20;63.30;;;;;;5053781;28;20028;-71
2022/03/20 09:15:05;;;;;;;0.20;0.20;;;9.50;61.70;;;;;;5035968;28;20025;-71
2022/03/20 09:20:19;;;;;;;0.68;0.68;;;10.00;62.00;;;;;;5053654;28;20032;-71
2022/03/20 09:22:45;;;;;;;0.63;0.63;;;10.20;61.00;;;;;;5053658;28;20385;-71
2022/03/20 09:25:10;;;;;;;1.27;1.13;;;10.70;60.20;;;;;;5035713;28;20040;-71
2022/03/20 09:27:36;;;;;;;0.70;0.70;;;11.00;59.40;;;;;;5052107;28;20029;-71
2022/03/20 09:30:05;;;;;;;0.20;0.20;;;11.30;58.70;;;;;;5053356;28;20109;-71
2022/03/20 09:32:31;;;;;;;0.63;0.63;;;11.70;57.80;;;;;;5053445;28;20021;-71
2022/03/20 09:34:57;;;;;;;3.60;3.30;;;12.20;57.30;;;;;;5052936;28;20043;-71
2022/03/20 09:37:22;;;;;;;3.20;2.05;;;12.80;55.90;;;;;;5052036;28;20421;-71
2022/03/20 09:39:48;;;;;;;0.35;0.35;;;13.10;54.40;;;;;;5052159;28;20435;-71
2022/03/20 09:42:14;;;;;;;0.85;0.85;;;13.20;55.10;;;;;;5051689;28;20050;-71
2022/03/20 09:44:40;;;;;;;0.82;0.82;;;13.40;53.60;;;;;;5053067;28;20029;-72
2022/03/20 09:47:16;;;;;;;2.05;1.95;;;13.60;53.40;;;;;;5052926;28;20032;-71
2022/03/20 09:49:45;;;;;;;0.95;0.95;;;13.80;52.70;;;;;;5052896;28;20055;-71
2022/03/20 09:52:11;;;;;;;0.75;0.75;;;14.20;50.50;;;;;;5052940;28;20373;-71
2022/03/20 09:54:36;;;;;;;0.63;0.63;;;14.60;49.70;;;;;;5051702;28;20098;-71
2022/03/20 09:57:05;;;;;;;4.13;3.58;;;14.80;50.60;;;;;;5033272;28;20052;-71
2022/03/20 09:59:32;;;;;;;1.55;1.08;;;15.10;50.70;;;;;;5052448;28;20021;-71
2022/03/20 10:02:02;;;;;;;0.82;0.82;;;15.30;49.00;;;;;;5052562;28;20052;-71
2022/03/20 10:04:28;;;;;;;3.08;1.85;;;15.80;48.50;;;;;;5018723;28;20107;-71
2022/03/20 10:06:54;;;;;;;0.70;0.70;;;16.10;47.90;;;;;;5052726;28;20029;-71
2022/03/20 10:09:23;;;;;;;2.72;1.02;;;16.20;47.50;;;;;;5052780;28;20498;-71
2022/03/20 10:11:57;;;;;;;0.77;0.77;;;16.30;46.80;;;;;;5052676;28;20017;-72
2022/03/20 10:14:26;;;;;;;4.50;2.67;;;16.10;47.60;;;;;;5052548;28;20025;-71
2022/03/20 10:17:14;;;;;;;6.18;2.83;;;16.00;46.80;;;;;;5034645;28;20025;-71
2022/03/20 10:19:40;;;;;;;1.88;1.67;;;16.00;46.90;;;;;;5052580;28;20029;-71
2022/03/20 10:22:10;;;;;;;1.60;1.35;;;16.10;46.70;;;;;;5052458;28;20025;-71
2022/03/20 10:24:47;;;;;;;2.45;2.25;;;16.50;46.40;;;;;;5051895;28;20028;-72
2022/03/20 10:27:14;;;;;;;3.05;2.30;;;16.80;44.30;;;;;;5052177;28;20036;-71
2022/03/20 10:29:47;;;;;;;5.45;4.93;;;17.00;43.00;;;;;;5052187;28;20021;-71
2022/03/20 10:32:13;;;;;;;6.40;4.85;;;17.20;42.70;;;;;;5052299;28;20075;-71
2022/03/20 10:34:52;;;;;;;5.57;3.60;;;17.20;42.60;;;;;;5052123;28;20516;-71
2022/03/20 10:37:19;;;;;;;6.32;3.30;;;17.20;41.80;;;;;;5034455;28;20032;-71
2022/03/20 10:39:45;;;;;;;3.13;1.88;;;17.50;43.30;;;;;;5052170;28;20021;-71
2022/03/20 10:42:15;;;;;;;7.43;2.78;;;17.50;43.30;;;;;;5052001;28;20029;-71
2022/03/20 10:44:42;;;;;;;1.25;1.17;;;17.80;42.90;;;;;;5051760;28;20024;-71
2022/03/20 10:47:13;;;;;;;4.20;3.55;;;18.00;41.60;;;;;;5051341;28;20592;-71
2022/03/20 10:49:46;;;;;;;5.10;3.30;;;17.90;41.60;;;;;;5051941;28;20444;-71
2022/03/20 10:52:19;;;;;;;0.98;0.98;;;18.20;41.50;;;;;;5034283;28;20443;-71
2022/03/20 10:54:45;;;;;;;1.85;1.30;;;18.50;42.60;;;;;;5051853;28;20025;-71
2022/03/20 10:57:13;;;;;;;4.43;1.48;;;18.70;42.00;;;;;;5051829;28;20025;-71
2022/03/20 10:59:40;;;;;;;1.95;1.40;;;19.10;41.20;;;;;;5034167;28;20390;-71
2022/03/20 11:02:22;;;;;;;2.33;2.13;;;19.20;41.20;;;;;;5051781;28;20020;-71
2022/03/20 11:04:48;;;;;;;7.38;4.13;;;19.10;41.10;;;;;;5033890;28;20400;-71
2022/03/20 11:07:17;;;;;;;2.35;1.33;;;18.10;41.70;;;;;;5034016;28;20025;-71
2022/03/20 11:09:52;;;;;;;4.15;2.83;;;18.50;42.00;;;;;;5051805;28;20025;-71
2022/03/20 11:12:29;;;;;;;6.43;4.47;;;18.10;42.10;;;;;;5033585;28;20503;-72
2022/03/20 11:15:03;;;;;;;9.13;3.50;;;17.80;42.80;;;;;;5051708;28;20388;-72
2022/03/20 11:17:44;;;;;;;1.45;1.35;;;18.10;42.10;;;;;;5017236;28;20059;-72
2022/03/20 11:20:16;;;;;;;4.38;3.00;;;17.80;41.80;;;;;;5050212;28;20021;-71
2022/03/20 11:22:50;;;;;;;6.22;1.67;;;17.50;42.40;;;;;;5033698;28;20035;-72
2022/03/20 11:25:20;;;;;;;8.93;2.95;;;17.70;41.80;;;;;;5033680;28;20032;-72
2022/03/20 11:27:51;;;;;;;8.95;2.55;;;17.60;41.80;;;;;;5033259;28;20060;-72
2022/03/20 11:30:19;;;;;;;14.63;5.77;;;17.70;42.60;;;;;;5051539;28;20021;-72
2022/03/20 11:32:47;;;;;;;0.90;0.90;;;17.70;41.80;;;;;;5051626;28;20388;-72
2022/03/20 11:35:14;;;;;;;2.95;1.90;;;17.80;42.10;;;;;;5051571;28;20376;-72
2022/03/20 11:37:48;;;;;;;3.10;1.48;;;18.40;40.80;;;;;;5051360;28;20025;-71
2022/03/20 11:40:19;;;;;;;4.78;1.95;;;18.40;40.80;;;;;;5051456;28;20029;-72
2022/03/20 11:42:45;;;;;;;5.20;2.80;;;18.90;40.20;;;;;;5051610;28;20024;-72
2022/03/20 11:45:17;;;;;;;4.55;2.50;;;19.20;39.50;;;;;;5051802;28;20037;-72
2022/03/20 11:47:46;;;;;;;3.88;2.83;;;19.20;39.20;;;;;;5033326;28;20059;-72
2022/03/20 11:50:26;;;;;;;14.63;5.70;;;19.30;37.90;;;;;;5065880;23;20017;-76
2022/03/20 11:52:57;;;;;;;11.98;4.47;;;19.00;38.60;;;;;;4998853;28;20038;-77
2022/03/20 11:55:29;;;;;;;4.75;3.20;;;18.60;38.50;;;;;;5037344;28;20053;-78
2022/03/20 11:57:56;;;;;;;1.35;1.10;;;18.60;38.80;;;;;;5020725;28;20029;-78
2022/03/20 12:00:30;;;;;;;0.40;0.40;;;19.10;39.00;;;;;;5022634;28;20421;-78
2022/03/20 12:03:12;;;;;;;1.75;1.00;;;19.30;38.70;;;;;;5019439;28;20029;-78
2022/03/20 12:05:41;;;;;;;12.80;7.32;;;19.30;37.70;;;;;;5025352;28;20476;-78
2022/03/20 12:08:25;;;;;;;5.45;2.95;;;19.20;36.90;;;;;;5004840;28;20029;-78
2022/03/20 12:11:05;;;;;;;1.42;1.33;;;18.90;37.30;;;;;;5024152;28;20055;-77
2022/03/20 12:14:02;;;;;;;3.58;1.85;;;18.90;37.50;;;;;;5040769;28;20026;-78
2022/03/20 12:16:52;;;;;;;1.95;1.45;;;19.00;36.90;;;;;;5053543;22;20076;-74
2022/03/20 12:19:21;;;;;;;5.93;3.22;;;18.90;37.90;;;;;;5038511;28;20025;-74
2022/03/20 12:22:03;;;;;;;5.25;2.92;;;19.10;37.40;;;;;;5037114;28;20048;-75
2022/03/20 12:24:34;;;;;;;2.17;1.05;;;18.50;38.40;;;;;;5054733;28;20104;-73
2022/03/20 12:27:26;;;;;;;4.10;2.85;;;18.50;37.20;;;;;;5054696;28;20037;-74
2022/03/20 12:29:53;;;;;;;;;;;18.70;36.70;;;;;;5014517;28;20047;-74
2022/03/20 12:32:20;;;;;;;5.07;2.85;;;18.70;37.00;;;;;;5054613;28;19911;-73
2022/03/20 12:35:04;;;;;;;1.02;0.98;;;18.90;37.10;;;;;;5054522;28;20021;-74
2022/03/20 12:37:29;;;;;;;1.27;1.27;;;18.40;36.50;;;;;;5054409;28;20032;-73
2022/03/20 12:40:04;;;;;;;1.80;1.17;;;18.10;37.20;;;;;;5054645;28;20468;-72
2022/03/20 12:42:32;;;;;;;2.92;1.85;;;18.50;38.10;;;;;;5054548;28;20048;-71
2022/03/20 12:44:58;;;;;;;17.42;4.50;;;18.20;38.50;;;;;;5054168;28;20025;-73
2022/03/20 12:47:26;;;;;;;2.13;1.50;;;17.80;37.50;;;;;;5054162;28;20568;-71
2022/03/20 12:49:59;;;;;;;2.58;2.47;;;17.90;37.80;;;;;;5054314;28;20085;-73
2022/03/20 12:52:24;;;;;;;2.97;1.90;;;17.70;37.80;;;;;;5054272;28;20028;-73
2022/03/20 12:54:56;;;;;;;7.53;3.88;;;17.60;38.60;;;;;;5036220;28;20047;-73
2022/03/20 12:57:41;;;;;;;2.47;0.85;;;17.30;39.00;;;;;;5036288;28;20029;-73
2022/03/20 13:00:13;;;;;;;42.20;3.05;;;17.20;39.40;;;;;;5036203;28;20583;-73
2022/03/20 13:02:57;;;;;;;1.63;1.48;;;17.60;39.10;;;;;;5036157;28;20029;-73
2022/03/20 13:05:24;;;;;;;7.40;3.75;;;17.50;38.80;;;;;;5053877;28;20029;-73
2022/03/20 13:07:53;;;;;;;12.63;6.38;;;17.30;39.00;;;;;;5035712;28;20075;-72
2022/03/20 13:10:24;;;;;;;7.78;6.15;;;17.00;38.90;;;;;;5053298;28;20461;-73
2022/03/20 13:12:58;;;;;;;0.37;0.37;;;16.80;39.20;;;;;;5053614;28;20021;-73
2022/03/20 13:15:29;;;;;;;0.40;0.40;;;16.70;38.80;;;;;;5053834;28;20017;-73
2022/03/20 13:17:56;;;;;;;14.80;5.65;;;16.60;39.20;;;;;;5052819;28;20033;-73
2022/03/20 13:20:25;;;;;;;10.55;4.90;;;16.70;39.10;;;;;;5053540;28;20041;-73
2022/03/20 13:22:57;;;;;;;2.80;2.20;;;16.50;39.40;;;;;;5019077;28;20041;-73
2022/03/20 13:25:26;;;;;;;0.20;0.20;;;16.10;39.60;;;;;;5053519;28;20488;-73
2022/03/20 13:27:53;;;;;;;3.10;1.67;;;16.30;40.10;;;;;;5018914;28;20284;-73